sensor_id;sensor_type;location;lat;lon;timestamp;P1;durP1;ratioP1;P2;durP2;ratioP2
57087;SDS011;42965;52.846;6.614;2023-02-03T00:01:36;11.98;;;3.22;;
57087;SDS011;42965;52.846;6.614;2023-02-03T00:04:02;16.65;;;3.20;;
57087;SDS011;42965;52.846;6.614;2023-02-03T00:06:29;6.85;;;2.35;;
57087;SDS011;42965;52.846;6.614;2023-02-03T00:08:56;11.98;;;2.85;;
57087;SDS011;42965;52.846;6.614;2023-02-03T00:11:29;10.82;;;2.22;;
57087;SDS011;42965;52.846;6.614;2023-02-03T00:13:56;9.75;;;3.40;;
57087;SDS011;42965;52.846;6.614;2023-02-03T00:16:22;8.70;;;2.78;;
57087;SDS011;42965;52.846;6.614;2023-02-03T00:18:48;10.18;;;2.67;;
57087;SDS011;42965;52.846;6.614;2023-02-03T00:21:15;9.55;;;2.40;;
57087;SDS011;42965;52.846;6.614;2023-02-03T00:23:41;10.68;;;2.40;;
57087;SDS011;42965;52.846;6.614;2023-02-03T00:28:36;11.48;;;3.08;;
57087;SDS011;42965;52.846;6.614;2023-02-03T00:31:02;10.93;;;2.35;;
57087;SDS011;42965;52.846;6.614;2023-02-03T00:33:29;9.73;;;2.30;;
57087;SDS011;42965;52.846;6.614;2023-02-03T00:35:55;8.40;;;2.55;;
57087;SDS011;42965;52.846;6.614;2023-02-03T00:38:21;10.32;;;2.30;;
57087;SDS011;42965;52.846;6.614;2023-02-03T00:40:52;12.02;;;2.70;;
57087;SDS011;42965;52.846;6.614;2023-02-03T00:43:19;11.80;;;2.75;;
57087;SDS011;42965;52.846;6.614;2023-02-03T00:45:48;11.20;;;2.45;;
57087;SDS011;42965;52.846;6.614;2023-02-03T00:48:16;10.13;;;2.72;;
57087;SDS011;42965;52.846;6.614;2023-02-03T00:50:45;8.50;;;2.60;;
57087;SDS011;42965;52.846;6.614;2023-02-03T00:53:12;12.68;;;3.25;;
57087;SDS011;42965;52.846;6.614;2023-02-03T00:55:38;7.70;;;3.20;;
57087;SDS011;42965;52.846;6.614;2023-02-03T00:58:04;10.38;;;2.83;;
57087;SDS011;42965;52.846;6.614;2023-02-03T01:00:32;12.10;;;3.97;;
57087;SDS011;42965;52.846;6.614;2023-02-03T01:02:58;15.20;;;3.88;;
57087;SDS011;42965;52.846;6.614;2023-02-03T01:05:25;9.18;;;3.80;;
57087;SDS011;42965;52.846;6.614;2023-02-03T01:07:51;12.23;;;3.80;;
57087;SDS011;42965;52.846;6.614;2023-02-03T01:10:17;11.60;;;4.28;;
57087;SDS011;42965;52.846;6.614;2023-02-03T01:12:43;14.85;;;4.13;;
57087;SDS011;42965;52.846;6.614;2023-02-03T01:15:09;13.45;;;4.05;;
57087;SDS011;42965;52.846;6.614;2023-02-03T01:17:36;12.75;;;4.32;;
57087;SDS011;42965;52.846;6.614;2023-02-03T01:20:03;14.63;;;4.70;;
57087;SDS011;42965;52.846;6.614;2023-02-03T01:22:30;13.73;;;4.60;;
57087;SDS011;42965;52.846;6.614;2023-02-03T01:24:56;12.98;;;4.82;;
57087;SDS011;42965;52.846;6.614;2023-02-03T01:27:22;15.73;;;4.93;;
57087;SDS011;42965;52.846;6.614;2023-02-03T01:29:48;14.55;;;4.30;;
57087;SDS011;42965;52.846;6.614;2023-02-03T01:32:15;12.10;;;4.70;;
57087;SDS011;42965;52.846;6.614;2023-02-03T01:34:41;11.43;;;4.47;;
57087;SDS011;42965;52.846;6.614;2023-02-03T01:37:07;8.48;;;3.92;;
57087;SDS011;42965;52.846;6.614;2023-02-03T01:39:34;13.15;;;3.95;;
57087;SDS011;42965;52.846;6.614;2023-02-03T01:42:00;11.30;;;4.15;;
57087;SDS011;42965;52.846;6.614;2023-02-03T01:44:46;13.55;;;4.32;;
57087;SDS011;42965;52.846;6.614;2023-02-03T01:50:05;18.73;;;4.15;;
57087;SDS011;42965;52.846;6.614;2023-02-03T01:52:55;19.90;;;4.55;;
57087;SDS011;42965;52.846;6.614;2023-02-03T01:55:30;13.20;;;3.67;;
57087;SDS011;42965;52.846;6.614;2023-02-03T01:58:20;13.40;;;4.13;;
57087;SDS011;42965;52.846;6.614;2023-02-03T02:00:52;17.45;;;4.18;;
57087;SDS011;42965;52.846;6.614;2023-02-03T02:03:22;17.00;;;3.65;;
57087;SDS011;42965;52.846;6.614;2023-02-03T02:05:57;13.13;;;4.07;;
57087;SDS011;42965;52.846;6.614;2023-02-03T02:08:28;13.75;;;4.18;;
57087;SDS011;42965;52.846;6.614;2023-02-03T02:10:56;16.95;;;4.07;;
57087;SDS011;42965;52.846;6.614;2023-02-03T02:13:24;16.30;;;5.03;;
57087;SDS011;42965;52.846;6.614;2023-02-03T02:38:24;13.70;;;3.28;;
57087;SDS011;42965;52.846;6.614;2023-02-03T02:41:03;17.35;;;4.03;;
57087;SDS011;42965;52.846;6.614;2023-02-03T02:43:39;16.90;;;4.20;;
57087;SDS011;42965;52.846;6.614;2023-02-03T02:46:10;13.98;;;3.63;;
57087;SDS011;42965;52.846;6.614;2023-02-03T02:51:24;10.75;;;2.85;;
57087;SDS011;42965;52.846;6.614;2023-02-03T02:53:55;12.50;;;3.58;;
57087;SDS011;42965;52.846;6.614;2023-02-03T02:56:24;13.90;;;3.33;;
57087;SDS011;42965;52.846;6.614;2023-02-03T02:58:56;15.20;;;3.00;;
57087;SDS011;42965;52.846;6.614;2023-02-03T03:01:27;10.25;;;2.80;;
57087;SDS011;42965;52.846;6.614;2023-02-03T03:03:53;12.50;;;3.15;;
57087;SDS011;42965;52.846;6.614;2023-02-03T03:06:21;12.27;;;2.83;;
57087;SDS011;42965;52.846;6.614;2023-02-03T03:09:10;7.88;;;2.53;;
57087;SDS011;42965;52.846;6.614;2023-02-03T03:11:42;10.32;;;2.53;;
57087;SDS011;42965;52.846;6.614;2023-02-03T03:14:15;12.82;;;2.50;;
57087;SDS011;42965;52.846;6.614;2023-02-03T03:16:45;14.93;;;3.17;;
57087;SDS011;42965;52.846;6.614;2023-02-03T03:19:19;15.48;;;3.03;;
57087;SDS011;42965;52.846;6.614;2023-02-03T03:21:50;10.43;;;2.78;;
57087;SDS011;42965;52.846;6.614;2023-02-03T03:24:23;10.32;;;3.10;;
57087;SDS011;42965;52.846;6.614;2023-02-03T03:29:41;11.88;;;2.83;;
57087;SDS011;42965;52.846;6.614;2023-02-03T03:32:41;14.18;;;3.13;;
57087;SDS011;42965;52.846;6.614;2023-02-03T03:35:07;12.80;;;3.20;;
57087;SDS011;42965;52.846;6.614;2023-02-03T03:37:37;9.60;;;2.38;;
57087;SDS011;42965;52.846;6.614;2023-02-03T03:40:32;9.70;;;3.33;;
57087;SDS011;42965;52.846;6.614;2023-02-03T03:43:13;10.63;;;2.70;;
57087;SDS011;42965;52.846;6.614;2023-02-03T03:45:53;14.05;;;2.78;;
57087;SDS011;42965;52.846;6.614;2023-02-03T03:51:03;12.02;;;2.50;;
57087;SDS011;42965;52.846;6.614;2023-02-03T03:53:39;11.88;;;2.95;;
57087;SDS011;42965;52.846;6.614;2023-02-03T03:56:09;8.98;;;2.45;;
57087;SDS011;42965;52.846;6.614;2023-02-03T03:58:38;13.95;;;2.65;;
57087;SDS011;42965;52.846;6.614;2023-02-03T04:01:09;11.97;;;2.83;;
57087;SDS011;42965;52.846;6.614;2023-02-03T04:03:44;9.25;;;2.13;;
57087;SDS011;42965;52.846;6.614;2023-02-03T04:06:14;9.80;;;3.05;;
57087;SDS011;42965;52.846;6.614;2023-02-03T04:08:40;12.95;;;3.17;;
57087;SDS011;42965;52.846;6.614;2023-02-03T04:11:06;9.25;;;2.35;;
57087;SDS011;42965;52.846;6.614;2023-02-03T04:13:33;7.28;;;2.50;;
57087;SDS011;42965;52.846;6.614;2023-02-03T04:15:59;10.35;;;2.40;;
57087;SDS011;42965;52.846;6.614;2023-02-03T04:18:25;11.80;;;2.70;;
57087;SDS011;42965;52.846;6.614;2023-02-03T04:20:52;12.43;;;3.40;;
57087;SDS011;42965;52.846;6.614;2023-02-03T04:23:18;10.25;;;2.28;;
57087;SDS011;42965;52.846;6.614;2023-02-03T04:25:44;8.68;;;2.42;;
57087;SDS011;42965;52.846;6.614;2023-02-03T04:28:10;11.82;;;2.63;;
57087;SDS011;42965;52.846;6.614;2023-02-03T04:30:36;9.15;;;2.55;;
57087;SDS011;42965;52.846;6.614;2023-02-03T04:33:02;15.55;;;3.20;;
57087;SDS011;42965;52.846;6.614;2023-02-03T04:35:28;12.68;;;2.75;;
57087;SDS011;42965;52.846;6.614;2023-02-03T04:37:55;10.98;;;2.53;;
57087;SDS011;42965;52.846;6.614;2023-02-03T04:40:21;8.90;;;2.42;;
57087;SDS011;42965;52.846;6.614;2023-02-03T04:42:47;11.48;;;3.22;;
57087;SDS011;42965;52.846;6.614;2023-02-03T04:45:13;10.43;;;3.03;;
57087;SDS011;42965;52.846;6.614;2023-02-03T04:47:39;10.30;;;2.75;;
57087;SDS011;42965;52.846;6.614;2023-02-03T04:50:06;9.18;;;2.95;;
57087;SDS011;42965;52.846;6.614;2023-02-03T04:52:32;11.55;;;2.85;;
57087;SDS011;42965;52.846;6.614;2023-02-03T04:54:58;9.50;;;1.90;;
57087;SDS011;42965;52.846;6.614;2023-02-03T04:57:25;11.85;;;2.60;;
57087;SDS011;42965;52.846;6.614;2023-02-03T04:59:51;11.50;;;2.90;;
57087;SDS011;42965;52.846;6.614;2023-02-03T05:02:17;11.07;;;2.75;;
57087;SDS011;42965;52.846;6.614;2023-02-03T05:04:44;12.25;;;3.42;;
57087;SDS011;42965;52.846;6.614;2023-02-03T05:07:10;10.07;;;2.70;;
57087;SDS011;42965;52.846;6.614;2023-02-03T05:09:36;12.30;;;3.38;;
57087;SDS011;42965;52.846;6.614;2023-02-03T05:12:02;9.90;;;2.80;;
57087;SDS011;42965;52.846;6.614;2023-02-03T05:14:29;14.35;;;3.42;;
57087;SDS011;42965;52.846;6.614;2023-02-03T05:16:55;11.98;;;3.30;;
57087;SDS011;42965;52.846;6.614;2023-02-03T05:19:21;7.57;;;2.97;;
57087;SDS011;42965;52.846;6.614;2023-02-03T05:21:47;11.85;;;3.25;;
57087;SDS011;42965;52.846;6.614;2023-02-03T05:24:13;11.38;;;2.38;;
57087;SDS011;42965;52.846;6.614;2023-02-03T05:26:40;9.20;;;2.78;;
57087;SDS011;42965;52.846;6.614;2023-02-03T05:29:06;13.75;;;2.75;;
57087;SDS011;42965;52.846;6.614;2023-02-03T05:31:34;9.75;;;2.40;;
57087;SDS011;42965;52.846;6.614;2023-02-03T05:34:00;5.75;;;2.30;;
57087;SDS011;42965;52.846;6.614;2023-02-03T05:36:27;8.23;;;2.58;;
57087;SDS011;42965;52.846;6.614;2023-02-03T05:38:53;16.25;;;3.30;;
57087;SDS011;42965;52.846;6.614;2023-02-03T05:41:19;12.60;;;3.58;;
57087;SDS011;42965;52.846;6.614;2023-02-03T05:44:04;12.70;;;2.58;;
57087;SDS011;42965;52.846;6.614;2023-02-03T05:46:30;9.38;;;2.42;;
57087;SDS011;42965;52.846;6.614;2023-02-03T05:48:57;10.98;;;3.15;;
57087;SDS011;42965;52.846;6.614;2023-02-03T05:51:23;6.47;;;2.60;;
57087;SDS011;42965;52.846;6.614;2023-02-03T05:53:49;11.55;;;2.63;;
57087;SDS011;42965;52.846;6.614;2023-02-03T05:56:16;9.68;;;2.88;;
57087;SDS011;42965;52.846;6.614;2023-02-03T05:58:42;10.57;;;3.22;;
57087;SDS011;42965;52.846;6.614;2023-02-03T06:01:08;16.17;;;4.32;;
57087;SDS011;42965;52.846;6.614;2023-02-03T06:03:36;8.85;;;2.85;;
57087;SDS011;42965;52.846;6.614;2023-02-03T06:06:03;12.07;;;2.83;;
57087;SDS011;42965;52.846;6.614;2023-02-03T06:08:29;8.07;;;2.42;;
57087;SDS011;42965;52.846;6.614;2023-02-03T06:10:56;15.43;;;2.90;;
57087;SDS011;42965;52.846;6.614;2023-02-03T06:13:24;11.20;;;3.10;;
57087;SDS011;42965;52.846;6.614;2023-02-03T06:15:53;10.70;;;3.30;;
57087;SDS011;42965;52.846;6.614;2023-02-03T06:18:19;11.50;;;3.38;;
57087;SDS011;42965;52.846;6.614;2023-02-03T06:20:45;9.70;;;2.67;;
57087;SDS011;42965;52.846;6.614;2023-02-03T06:23:12;13.10;;;3.42;;
57087;SDS011;42965;52.846;6.614;2023-02-03T06:25:38;12.88;;;3.55;;
57087;SDS011;42965;52.846;6.614;2023-02-03T06:28:04;10.48;;;3.38;;
57087;SDS011;42965;52.846;6.614;2023-02-03T06:30:31;10.02;;;3.42;;
57087;SDS011;42965;52.846;6.614;2023-02-03T06:32:57;14.38;;;3.78;;
57087;SDS011;42965;52.846;6.614;2023-02-03T06:35:27;12.63;;;3.58;;
57087;SDS011;42965;52.846;6.614;2023-02-03T06:37:53;13.13;;;3.55;;
57087;SDS011;42965;52.846;6.614;2023-02-03T06:40:20;13.70;;;3.40;;
57087;SDS011;42965;52.846;6.614;2023-02-03T06:42:46;16.23;;;4.35;;
57087;SDS011;42965;52.846;6.614;2023-02-03T06:45:13;12.38;;;3.22;;
57087;SDS011;42965;52.846;6.614;2023-02-03T06:47:40;13.50;;;3.83;;
57087;SDS011;42965;52.846;6.614;2023-02-03T06:50:08;14.80;;;3.55;;
57087;SDS011;42965;52.846;6.614;2023-02-03T06:52:36;13.00;;;3.45;;
57087;SDS011;42965;52.846;6.614;2023-02-03T06:55:03;10.10;;;3.60;;
57087;SDS011;42965;52.846;6.614;2023-02-03T06:57:30;13.73;;;3.47;;
57087;SDS011;42965;52.846;6.614;2023-02-03T06:59:57;12.88;;;3.40;;
57087;SDS011;42965;52.846;6.614;2023-02-03T07:02:24;12.23;;;3.42;;
57087;SDS011;42965;52.846;6.614;2023-02-03T07:04:53;9.52;;;3.28;;
57087;SDS011;42965;52.846;6.614;2023-02-03T07:07:20;16.20;;;3.13;;
57087;SDS011;42965;52.846;6.614;2023-02-03T07:09:46;13.60;;;3.40;;
57087;SDS011;42965;52.846;6.614;2023-02-03T07:12:12;11.05;;;2.95;;
57087;SDS011;42965;52.846;6.614;2023-02-03T07:14:38;14.55;;;3.58;;
57087;SDS011;42965;52.846;6.614;2023-02-03T07:17:05;16.70;;;4.00;;
57087;SDS011;42965;52.846;6.614;2023-02-03T07:19:31;13.95;;;3.67;;
57087;SDS011;42965;52.846;6.614;2023-02-03T07:21:58;13.35;;;3.20;;
57087;SDS011;42965;52.846;6.614;2023-02-03T07:24:24;10.35;;;3.53;;
57087;SDS011;42965;52.846;6.614;2023-02-03T07:26:51;13.32;;;4.10;;
57087;SDS011;42965;52.846;6.614;2023-02-03T07:29:18;19.33;;;4.40;;
57087;SDS011;42965;52.846;6.614;2023-02-03T07:31:44;12.30;;;4.03;;
57087;SDS011;42965;52.846;6.614;2023-02-03T07:34:10;24.17;;;5.68;;
57087;SDS011;42965;52.846;6.614;2023-02-03T07:36:36;15.90;;;4.47;;
57087;SDS011;42965;52.846;6.614;2023-02-03T07:39:03;18.73;;;4.18;;
57087;SDS011;42965;52.846;6.614;2023-02-03T07:41:29;18.30;;;3.80;;
57087;SDS011;42965;52.846;6.614;2023-02-03T07:43:55;16.85;;;4.22;;
57087;SDS011;42965;52.846;6.614;2023-02-03T07:46:21;14.82;;;3.95;;
57087;SDS011;42965;52.846;6.614;2023-02-03T07:48:47;18.65;;;4.20;;
57087;SDS011;42965;52.846;6.614;2023-02-03T07:51:14;11.35;;;3.80;;
57087;SDS011;42965;52.846;6.614;2023-02-03T07:53:40;14.82;;;4.18;;
57087;SDS011;42965;52.846;6.614;2023-02-03T07:56:06;15.13;;;4.55;;
57087;SDS011;42965;52.846;6.614;2023-02-03T07:58:32;15.57;;;4.00;;
57087;SDS011;42965;52.846;6.614;2023-02-03T08:00:59;17.63;;;4.38;;
57087;SDS011;42965;52.846;6.614;2023-02-03T08:03:25;9.90;;;3.88;;
57087;SDS011;42965;52.846;6.614;2023-02-03T08:05:52;13.68;;;4.15;;
57087;SDS011;42965;52.846;6.614;2023-02-03T08:08:19;16.35;;;4.20;;
57087;SDS011;42965;52.846;6.614;2023-02-03T08:10:45;11.25;;;3.83;;
57087;SDS011;42965;52.846;6.614;2023-02-03T08:13:11;21.70;;;5.00;;
57087;SDS011;42965;52.846;6.614;2023-02-03T08:15:37;13.80;;;4.05;;
57087;SDS011;42965;52.846;6.614;2023-02-03T08:18:04;16.23;;;4.97;;
57087;SDS011;42965;52.846;6.614;2023-02-03T08:20:30;24.27;;;5.00;;
57087;SDS011;42965;52.846;6.614;2023-02-03T08:22:56;19.33;;;4.78;;
57087;SDS011;42965;52.846;6.614;2023-02-03T08:25:23;18.60;;;4.72;;
57087;SDS011;42965;52.846;6.614;2023-02-03T08:27:49;16.08;;;4.25;;
57087;SDS011;42965;52.846;6.614;2023-02-03T08:30:15;13.68;;;4.38;;
57087;SDS011;42965;52.846;6.614;2023-02-03T08:32:42;17.80;;;4.60;;
57087;SDS011;42965;52.846;6.614;2023-02-03T08:35:08;14.02;;;4.40;;
57087;SDS011;42965;52.846;6.614;2023-02-03T08:37:35;20.42;;;5.10;;
57087;SDS011;42965;52.846;6.614;2023-02-03T08:40:01;19.23;;;5.53;;
57087;SDS011;42965;52.846;6.614;2023-02-03T08:42:27;15.30;;;4.47;;
57087;SDS011;42965;52.846;6.614;2023-02-03T08:44:54;17.75;;;4.53;;
57087;SDS011;42965;52.846;6.614;2023-02-03T08:47:20;22.55;;;4.93;;
57087;SDS011;42965;52.846;6.614;2023-02-03T08:49:47;22.70;;;8.75;;
57087;SDS011;42965;52.846;6.614;2023-02-03T08:52:13;14.70;;;3.85;;
57087;SDS011;42965;52.846;6.614;2023-02-03T08:54:40;18.65;;;5.18;;
57087;SDS011;42965;52.846;6.614;2023-02-03T08:57:07;16.38;;;5.25;;
57087;SDS011;42965;52.846;6.614;2023-02-03T08:59:34;20.45;;;4.95;;
57087;SDS011;42965;52.846;6.614;2023-02-03T09:02:03;18.52;;;4.65;;
57087;SDS011;42965;52.846;6.614;2023-02-03T09:04:32;16.50;;;4.63;;
57087;SDS011;42965;52.846;6.614;2023-02-03T09:06:58;19.00;;;4.88;;
57087;SDS011;42965;52.846;6.614;2023-02-03T09:09:27;18.55;;;4.70;;
57087;SDS011;42965;52.846;6.614;2023-02-03T09:11:57;22.63;;;6.10;;
57087;SDS011;42965;52.846;6.614;2023-02-03T09:14:27;14.52;;;4.30;;
57087;SDS011;42965;52.846;6.614;2023-02-03T09:16:54;19.67;;;4.65;;
57087;SDS011;42965;52.846;6.614;2023-02-03T09:19:21;18.60;;;4.32;;
57087;SDS011;42965;52.846;6.614;2023-02-03T09:21:47;17.48;;;4.50;;
57087;SDS011;42965;52.846;6.614;2023-02-03T09:24:14;23.65;;;5.15;;
57087;SDS011;42965;52.846;6.614;2023-02-03T09:26:41;23.98;;;4.55;;
57087;SDS011;42965;52.846;6.614;2023-02-03T09:29:07;18.45;;;4.53;;
57087;SDS011;42965;52.846;6.614;2023-02-03T09:31:34;25.27;;;5.50;;
57087;SDS011;42965;52.846;6.614;2023-02-03T09:34:01;24.73;;;8.18;;
57087;SDS011;42965;52.846;6.614;2023-02-03T09:36:28;16.50;;;5.43;;
57087;SDS011;42965;52.846;6.614;2023-02-03T09:38:55;17.40;;;4.93;;
57087;SDS011;42965;52.846;6.614;2023-02-03T09:47:36;24.02;;;5.22;;
57087;SDS011;42965;52.846;6.614;2023-02-03T09:50:06;23.08;;;5.28;;
57087;SDS011;42965;52.846;6.614;2023-02-03T09:52:44;20.45;;;4.55;;
57087;SDS011;42965;52.846;6.614;2023-02-03T09:55:16;17.08;;;5.15;;
57087;SDS011;42965;52.846;6.614;2023-02-03T09:57:49;25.30;;;4.93;;
57087;SDS011;42965;52.846;6.614;2023-02-03T10:00:22;21.83;;;5.63;;
57087;SDS011;42965;52.846;6.614;2023-02-03T10:02:56;23.98;;;5.97;;
57087;SDS011;42965;52.846;6.614;2023-02-03T10:11:37;22.60;;;5.47;;
57087;SDS011;42965;52.846;6.614;2023-02-03T10:14:19;35.53;;;10.23;;
57087;SDS011;42965;52.846;6.614;2023-02-03T10:20:02;26.52;;;5.90;;
57087;SDS011;42965;52.846;6.614;2023-02-03T10:22:33;38.25;;;6.35;;
57087;SDS011;42965;52.846;6.614;2023-02-03T10:27:57;22.75;;;6.18;;
57087;SDS011;42965;52.846;6.614;2023-02-03T10:30:30;23.55;;;5.45;;
57087;SDS011;42965;52.846;6.614;2023-02-03T10:33:10;26.58;;;5.95;;
57087;SDS011;42965;52.846;6.614;2023-02-03T10:35:45;23.58;;;5.97;;
57087;SDS011;42965;52.846;6.614;2023-02-03T10:38:22;24.35;;;6.32;;
57087;SDS011;42965;52.846;6.614;2023-02-03T10:41:03;25.77;;;6.97;;
57087;SDS011;42965;52.846;6.614;2023-02-03T10:43:30;26.73;;;5.82;;
57087;SDS011;42965;52.846;6.614;2023-02-03T10:46:13;24.50;;;5.80;;
57087;SDS011;42965;52.846;6.614;2023-02-03T10:48:41;24.13;;;6.32;;
57087;SDS011;42965;52.846;6.614;2023-02-03T10:51:29;26.70;;;7.10;;
57087;SDS011;42965;52.846;6.614;2023-02-03T10:53:56;26.65;;;7.80;;
57087;SDS011;42965;52.846;6.614;2023-02-03T10:56:30;29.58;;;6.78;;
57087;SDS011;42965;52.846;6.614;2023-02-03T10:59:01;26.67;;;6.32;;
57087;SDS011;42965;52.846;6.614;2023-02-03T11:01:39;27.50;;;6.75;;
57087;SDS011;42965;52.846;6.614;2023-02-03T11:04:25;28.90;;;6.43;;
57087;SDS011;42965;52.846;6.614;2023-02-03T11:06:55;31.80;;;6.32;;
57087;SDS011;42965;52.846;6.614;2023-02-03T11:12:05;27.00;;;5.85;;
57087;SDS011;42965;52.846;6.614;2023-02-03T11:14:42;31.40;;;6.03;;
57087;SDS011;42965;52.846;6.614;2023-02-03T11:17:17;24.02;;;6.20;;
57087;SDS011;42965;52.846;6.614;2023-02-03T11:19:49;25.33;;;6.30;;
57087;SDS011;42965;52.846;6.614;2023-02-03T11:22:34;25.38;;;5.68;;
57087;SDS011;42965;52.846;6.614;2023-02-03T11:25:03;25.15;;;6.20;;
57087;SDS011;42965;52.846;6.614;2023-02-03T11:27:41;34.78;;;6.15;;
57087;SDS011;42965;52.846;6.614;2023-02-03T11:32:52;31.25;;;7.60;;
57087;SDS011;42965;52.846;6.614;2023-02-03T11:35:25;31.05;;;6.10;;
57087;SDS011;42965;52.846;6.614;2023-02-03T11:37:55;31.50;;;6.50;;
57087;SDS011;42965;52.846;6.614;2023-02-03T11:40:31;30.00;;;6.13;;
57087;SDS011;42965;52.846;6.614;2023-02-03T11:43:16;30.27;;;6.97;;
57087;SDS011;42965;52.846;6.614;2023-02-03T11:45:52;34.88;;;8.20;;
57087;SDS011;42965;52.846;6.614;2023-02-03T11:48:31;31.02;;;6.13;;
57087;SDS011;42965;52.846;6.614;2023-02-03T11:53:50;42.78;;;8.65;;
57087;SDS011;42965;52.846;6.614;2023-02-03T11:56:44;33.00;;;8.20;;
57087;SDS011;42965;52.846;6.614;2023-02-03T11:59:56;32.03;;;6.32;;
57087;SDS011;42965;52.846;6.614;2023-02-03T12:10:45;32.40;;;7.57;;
57087;SDS011;42965;52.846;6.614;2023-02-03T12:24:43;34.95;;;7.22;;
57087;SDS011;42965;52.846;6.614;2023-02-03T12:30:10;30.90;;;6.32;;
57087;SDS011;42965;52.846;6.614;2023-02-03T12:32:41;30.38;;;6.15;;
57087;SDS011;42965;52.846;6.614;2023-02-03T12:37:47;30.63;;;8.82;;
57087;SDS011;42965;52.846;6.614;2023-02-03T12:42:51;29.52;;;6.80;;
57087;SDS011;42965;52.846;6.614;2023-02-03T12:45:23;34.17;;;7.63;;
57087;SDS011;42965;52.846;6.614;2023-02-03T12:48:16;40.65;;;7.60;;
57087;SDS011;42965;52.846;6.614;2023-02-03T12:50:48;28.50;;;6.32;;
57087;SDS011;42965;52.846;6.614;2023-02-03T12:53:23;30.25;;;6.93;;
57087;SDS011;42965;52.846;6.614;2023-02-03T12:55:57;34.45;;;8.55;;
57087;SDS011;42965;52.846;6.614;2023-02-03T12:58:36;32.70;;;7.22;;
57087;SDS011;42965;52.846;6.614;2023-02-03T13:01:23;31.33;;;7.07;;
57087;SDS011;42965;52.846;6.614;2023-02-03T13:04:14;38.97;;;7.95;;
57087;SDS011;42965;52.846;6.614;2023-02-03T13:09:56;31.15;;;8.23;;
57087;SDS011;42965;52.846;6.614;2023-02-03T13:12:29;35.58;;;6.93;;
57087;SDS011;42965;52.846;6.614;2023-02-03T13:17:46;29.08;;;6.78;;
57087;SDS011;42965;52.846;6.614;2023-02-03T13:20:21;26.15;;;6.55;;
57087;SDS011;42965;52.846;6.614;2023-02-03T13:22:54;31.58;;;7.57;;
57087;SDS011;42965;52.846;6.614;2023-02-03T13:44:34;39.97;;;9.40;;
57087;SDS011;42965;52.846;6.614;2023-02-03T13:47:03;35.90;;;8.32;;
57087;SDS011;42965;52.846;6.614;2023-02-03T13:49:31;33.65;;;7.60;;
57087;SDS011;42965;52.846;6.614;2023-02-03T13:52:00;39.22;;;8.50;;
57087;SDS011;42965;52.846;6.614;2023-02-03T13:54:30;37.00;;;6.68;;
57087;SDS011;42965;52.846;6.614;2023-02-03T13:57:03;32.28;;;7.72;;
57087;SDS011;42965;52.846;6.614;2023-02-03T13:59:39;43.63;;;9.05;;
57087;SDS011;42965;52.846;6.614;2023-02-03T14:04:55;31.23;;;8.13;;
57087;SDS011;42965;52.846;6.614;2023-02-03T14:07:33;33.33;;;7.68;;
57087;SDS011;42965;52.846;6.614;2023-02-03T14:15:26;37.58;;;10.65;;
57087;SDS011;42965;52.846;6.614;2023-02-03T14:17:56;44.35;;;18.65;;
57087;SDS011;42965;52.846;6.614;2023-02-03T14:22:56;33.00;;;6.45;;
57087;SDS011;42965;52.846;6.614;2023-02-03T14:25:26;33.45;;;7.95;;
57087;SDS011;42965;52.846;6.614;2023-02-03T14:28:27;30.58;;;6.70;;
57087;SDS011;42965;52.846;6.614;2023-02-03T14:31:04;26.75;;;7.22;;
57087;SDS011;42965;52.846;6.614;2023-02-03T14:33:49;30.02;;;7.20;;
57087;SDS011;42965;52.846;6.614;2023-02-03T14:38:54;27.52;;;7.57;;
57087;SDS011;42965;52.846;6.614;2023-02-03T14:41:33;28.05;;;5.95;;
57087;SDS011;42965;52.846;6.614;2023-02-03T14:53:06;26.05;;;6.30;;
57087;SDS011;42965;52.846;6.614;2023-02-03T14:55:38;25.63;;;6.70;;
57087;SDS011;42965;52.846;6.614;2023-02-03T14:58:29;18.92;;;5.28;;
57087;SDS011;42965;52.846;6.614;2023-02-03T15:01:03;22.85;;;4.30;;
57087;SDS011;42965;52.846;6.614;2023-02-03T15:03:30;23.13;;;5.72;;
57087;SDS011;42965;52.846;6.614;2023-02-03T15:05:58;20.00;;;4.25;;
57087;SDS011;42965;52.846;6.614;2023-02-03T15:11:17;79.80;;;50.10;;
57087;SDS011;42965;52.846;6.614;2023-02-03T15:13:55;21.40;;;7.13;;
57087;SDS011;42965;52.846;6.614;2023-02-03T15:16:39;24.08;;;4.57;;
57087;SDS011;42965;52.846;6.614;2023-02-03T15:19:15;19.45;;;4.38;;
57087;SDS011;42965;52.846;6.614;2023-02-03T15:21:43;21.10;;;4.93;;
57087;SDS011;42965;52.846;6.614;2023-02-03T15:24:14;15.50;;;4.10;;
57087;SDS011;42965;52.846;6.614;2023-02-03T15:26:49;16.60;;;4.30;;
57087;SDS011;42965;52.846;6.614;2023-02-03T15:29:21;20.25;;;4.35;;
57087;SDS011;42965;52.846;6.614;2023-02-03T15:34:31;18.08;;;4.10;;
57087;SDS011;42965;52.846;6.614;2023-02-03T15:37:15;19.48;;;3.63;;
57087;SDS011;42965;52.846;6.614;2023-02-03T15:39:57;20.60;;;4.13;;
57087;SDS011;42965;52.846;6.614;2023-02-03T15:42:48;19.08;;;4.80;;
57087;SDS011;42965;52.846;6.614;2023-02-03T15:45:25;17.63;;;5.28;;
57087;SDS011;42965;52.846;6.614;2023-02-03T15:48:03;20.38;;;5.55;;
57087;SDS011;42965;52.846;6.614;2023-02-03T15:50:41;16.90;;;3.70;;
57087;SDS011;42965;52.846;6.614;2023-02-03T15:53:30;21.98;;;5.15;;
57087;SDS011;42965;52.846;6.614;2023-02-03T15:56:00;21.45;;;4.40;;
57087;SDS011;42965;52.846;6.614;2023-02-03T15:58:36;22.13;;;4.30;;
57087;SDS011;42965;52.846;6.614;2023-02-03T16:01:10;22.02;;;4.00;;
57087;SDS011;42965;52.846;6.614;2023-02-03T16:03:42;22.52;;;4.35;;
57087;SDS011;42965;52.846;6.614;2023-02-03T16:06:22;18.27;;;4.90;;
57087;SDS011;42965;52.846;6.614;2023-02-03T16:08:52;19.40;;;4.35;;
57087;SDS011;42965;52.846;6.614;2023-02-03T16:11:21;20.88;;;4.85;;
57087;SDS011;42965;52.846;6.614;2023-02-03T16:13:50;17.33;;;3.95;;
57087;SDS011;42965;52.846;6.614;2023-02-03T16:16:21;21.80;;;4.78;;
57087;SDS011;42965;52.846;6.614;2023-02-03T16:18:56;24.83;;;5.03;;
57087;SDS011;42965;52.846;6.614;2023-02-03T16:24:26;20.65;;;4.90;;
57087;SDS011;42965;52.846;6.614;2023-02-03T16:29:53;19.75;;;5.03;;
57087;SDS011;42965;52.846;6.614;2023-02-03T16:36:11;36.30;;;7.57;;
57087;SDS011;42965;52.846;6.614;2023-02-03T16:38:57;24.05;;;6.25;;
57087;SDS011;42965;52.846;6.614;2023-02-03T16:41:45;29.63;;;7.03;;
57087;SDS011;42965;52.846;6.614;2023-02-03T16:44:30;34.05;;;8.77;;
57087;SDS011;42965;52.846;6.614;2023-02-03T16:47:25;34.95;;;7.60;;
57087;SDS011;42965;52.846;6.614;2023-02-03T16:50:17;32.80;;;8.02;;
57087;SDS011;42965;52.846;6.614;2023-02-03T16:53:04;28.83;;;7.70;;
57087;SDS011;42965;52.846;6.614;2023-02-03T16:55:32;33.47;;;7.22;;
57087;SDS011;42965;52.846;6.614;2023-02-03T16:57:58;36.30;;;7.43;;
57087;SDS011;42965;52.846;6.614;2023-02-03T17:00:25;27.52;;;6.07;;
57087;SDS011;42965;52.846;6.614;2023-02-03T17:02:51;33.65;;;7.35;;
57087;SDS011;42965;52.846;6.614;2023-02-03T17:05:17;36.95;;;7.88;;
57087;SDS011;42965;52.846;6.614;2023-02-03T17:07:44;29.65;;;6.53;;
57087;SDS011;42965;52.846;6.614;2023-02-03T17:10:11;28.75;;;5.97;;
57087;SDS011;42965;52.846;6.614;2023-02-03T17:12:38;28.35;;;6.57;;
57087;SDS011;42965;52.846;6.614;2023-02-03T17:15:05;33.38;;;7.70;;
57087;SDS011;42965;52.846;6.614;2023-02-03T17:17:32;33.20;;;7.05;;
57087;SDS011;42965;52.846;6.614;2023-02-03T17:19:59;31.20;;;6.72;;
57087;SDS011;42965;52.846;6.614;2023-02-03T17:22:25;27.40;;;6.97;;
57087;SDS011;42965;52.846;6.614;2023-02-03T17:24:52;35.80;;;7.70;;
57087;SDS011;42965;52.846;6.614;2023-02-03T17:27:18;30.65;;;7.38;;
57087;SDS011;42965;52.846;6.614;2023-02-03T17:29:45;35.08;;;7.00;;